Time;durP1;ratioP1;P1;durP2;ratioP2;P2;SDS_P1;SDS_P2;PMS_P1;PMS_P2;Temp;Humidity;BMP_temperature;BMP_pressure;BME280_temperature;BME280_humidity;BME280_pressure;Samples;Min_cycle;Max_cycle;Signal;HPM_P1;HPM_P2
2022/03/12 00:02:15;;;;;;;10.05;6.30;;;;;;;;;;5011635;28;20046;-87
2022/03/12 00:04:42;;;;;;;13.25;6.40;;;;;;;;;;5011163;28;20037;-88
2022/03/12 00:07:10;;;;;;;11.93;6.20;;;;;;;;;;4982535;28;20046;-87
2022/03/12 00:09:36;;;;;;;11.18;5.82;;;;;;;;;;4985033;28;20477;-88
2022/03/12 00:12:03;;;;;;;13.35;6.22;;;;;;;;;;5013196;28;20049;-87
2022/03/12 00:14:32;;;;;;;10.40;6.28;;;;;;;;;;5008936;28;20038;-87
2022/03/12 00:16:59;;;;;;;11.82;6.25;;;;;;;;;;5007140;28;20084;-87
2022/03/12 00:19:25;;;;;;;12.55;6.20;;;;;;;;;;4988327;28;20042;-87
2022/03/12 00:21:51;;;;;;;10.35;6.55;;;;;;;;;;5011267;28;20057;-87
2022/03/12 00:24:18;;;;;;;11.63;6.07;;;;;;;;;;5002160;28;20080;-87
2022/03/12 00:26:47;;;;;;;11.50;7.00;;;;;;;;;;5010830;28;20042;-87
2022/03/12 00:29:14;;;;;;;11.98;5.93;;;;;;;;;;5008657;28;20049;-84
2022/03/12 00:31:45;;;;;;;11.48;6.03;;;;;;;;;;5025964;28;20569;-85
2022/03/12 00:34:11;;;;;;;10.45;6.20;;;;;;;;;;5004925;28;20073;-85
2022/03/12 00:36:38;;;;;;;13.43;6.38;;;;;;;;;;4986303;28;20156;-85
2022/03/12 00:39:05;;;;;;;8.65;6.05;;;;;;;;;;5007598;28;20034;-85
2022/03/12 00:41:31;;;;;;;11.50;6.35;;;;;;;;;;4991341;28;20083;-85
2022/03/12 00:43:57;;;;;;;11.38;6.03;;;;;;;;;;4993536;28;20038;-85
2022/03/12 00:46:23;;;;;;;13.23;6.78;;;;;;;;;;4991568;28;20041;-85
2022/03/12 00:48:49;;;;;;;13.45;6.05;;;;;;;;;;5010662;28;20038;-85
2022/03/12 00:51:15;;;;;;;10.85;5.75;;;;;;;;;;5009549;28;20042;-85
2022/03/12 00:53:42;;;;;;;10.68;6.32;;;;;;;;;;5008868;28;20400;-85
2022/03/12 00:56:08;;;;;;;11.30;6.88;;;;;;;;;;5009769;28;20585;-85
2022/03/12 00:58:37;;;;;;;10.23;6.05;;;;;;;;;;4974774;28;20076;-84
2022/03/12 01:01:04;;;;;;;11.43;6.47;;;;;;;;;;4973319;28;20034;-84
2022/03/12 01:03:30;;;;;;;11.40;6.25;;;;;;;;;;4986756;28;20480;-85
2022/03/12 01:05:56;;;;;;;10.13;6.10;;;;;;;;;;4991832;28;20033;-85
2022/03/12 01:08:26;;;;;;;9.60;5.90;;;;;;;;;;5009660;28;20088;-85
2022/03/12 01:10:53;;;;;;;11.35;6.43;;;;;;;;;;5008128;28;20042;-85
2022/03/12 01:13:20;;;;;;;8.90;5.50;;;;;;;;;;4989359;28;20480;-85
2022/03/12 01:15:47;;;;;;;11.30;6.00;;;;;;;;;;4989749;28;20074;-85
2022/03/12 01:18:14;;;;;;;11.77;6.03;;;;;;;;;;4992716;28;20519;-85
2022/03/12 01:20:40;;;;;;;11.82;6.15;;;;;;;;;;5010117;28;20483;-85
2022/03/12 01:23:07;;;;;;;10.68;6.45;;;;;;;;;;5009303;28;20037;-84
2022/03/12 01:25:33;;;;;;;10.60;6.22;;;;;;;;;;5006387;28;20034;-85
2022/03/12 01:27:59;;;;;;;10.98;5.90;;;;;;;;;;5007633;28;20041;-84
2022/03/12 01:30:27;;;;;;;10.90;6.78;;;;;;;;;;5007637;28;20504;-84
2022/03/12 01:32:53;;;;;;;10.13;6.03;;;;;;;;;;5008244;28;20085;-85
2022/03/12 01:35:19;;;;;;;10.88;6.13;;;;;;;;;;4976471;28;20060;-86
2022/03/12 01:37:45;;;;;;;12.63;6.25;;;;;;;;;;5007277;28;20034;-87
2022/03/12 01:40:11;;;;;;;9.80;6.10;;;;;;;;;;4989432;28;20117;-86
2022/03/12 01:42:38;;;;;;;10.10;6.38;;;;;;;;;;5006931;28;20038;-87
2022/03/12 01:45:09;;;;;;;10.82;6.22;;;;;;;;;;5008154;28;20038;-87
2022/03/12 01:47:35;;;;;;;10.93;6.07;;;;;;;;;;5007228;28;20136;-86
2022/03/12 01:50:02;;;;;;;11.70;6.15;;;;;;;;;;4990510;28;20038;-86
2022/03/12 01:52:29;;;;;;;10.57;6.30;;;;;;;;;;4973761;28;20048;-85
2022/03/12 01:54:55;;;;;;;10.95;6.03;;;;;;;;;;5008484;28;20415;-84
2022/03/12 01:57:22;;;;;;;10.75;5.82;;;;;;;;;;5009032;28;20501;-85
2022/03/12 01:59:51;;;;;;;9.45;6.00;;;;;;;;;;5006866;28;20045;-85
2022/03/12 02:02:17;;;;;;;10.63;6.18;;;;;;;;;;4992007;28;20083;-85
2022/03/12 02:04:51;;;;;;;12.75;6.38;;;;;;;;;;5009474;28;20042;-85
2022/03/12 02:07:17;;;;;;;9.20;6.25;;;;;;;;;;4995969;28;20077;-85
2022/03/12 02:09:44;;;;;;;11.95;6.53;;;;;;;;;;5012453;28;20034;-86
2022/03/12 02:12:11;;;;;;;9.13;6.25;;;;;;;;;;5006520;28;20045;-86
2022/03/12 02:14:37;;;;;;;11.38;6.50;;;;;;;;;;5007433;28;20488;-86
2022/03/12 02:17:13;;;;;;;12.57;6.78;;;;;;;;;;5012478;28;20168;-85
2022/03/12 02:19:40;;;;;;;11.27;6.27;;;;;;;;;;4990876;28;20034;-84
2022/03/12 02:22:16;;;;;;;11.32;5.95;;;;;;;;;;5007328;28;20505;-85
2022/03/12 02:24:42;;;;;;;11.43;5.75;;;;;;;;;;5012128;28;20030;-84
2022/03/12 02:27:12;;;;;;;10.13;6.18;;;;;;;;;;5009549;28;20085;-85
2022/03/12 02:29:40;;;;;;;9.52;5.82;;;;;;;;;;5007558;28;20132;-84
2022/03/12 02:32:09;;;;;;;10.85;6.88;;;;;;;;;;5010483;28;21673;-85
2022/03/12 02:34:54;;;;;;;9.73;6.25;;;;;;;;;;5011201;28;20038;-84
2022/03/12 02:37:32;;;;;;;9.30;5.90;;;;;;;;;;4992598;28;20124;-85
2022/03/12 02:40:00;;;;;;;9.75;6.13;;;;;;;;;;5011138;28;20041;-84
2022/03/12 02:42:28;;;;;;;9.13;5.85;;;;;;;;;;5012295;28;20060;-86
2022/03/12 02:44:54;;;;;;;9.30;6.18;;;;;;;;;;5023042;28;20045;-86
2022/03/12 02:47:22;;;;;;;9.30;6.32;;;;;;;;;;5009902;28;20042;-87
2022/03/12 02:49:51;;;;;;;15.13;6.75;;;;;;;;;;5010857;28;20178;-87
2022/03/12 02:52:18;;;;;;;12.73;6.47;;;;;;;;;;5008576;28;20551;-86
2022/03/12 02:54:45;;;;;;;10.60;6.13;;;;;;;;;;5010109;28;20092;-87
2022/03/12 02:57:11;;;;;;;12.98;6.60;;;;;;;;;;5010932;28;20040;-86
2022/03/12 02:59:38;;;;;;;12.60;6.78;;;;;;;;;;5010337;28;20046;-85
2022/03/12 03:02:08;;;;;;;14.57;6.70;;;;;;;;;;5011132;28;20379;-84
2022/03/12 03:04:36;;;;;;;10.93;6.22;;;;;;;;;;5010228;28;20045;-85
2022/03/12 03:07:06;;;;;;;10.98;6.57;;;;;;;;;;5008036;28;20121;-84
2022/03/12 03:09:32;;;;;;;10.85;6.30;;;;;;;;;;5009907;28;20090;-84
2022/03/12 03:12:03;;;;;;;12.50;6.57;;;;;;;;;;4992804;28;20073;-84
2022/03/12 03:14:29;;;;;;;11.93;6.50;;;;;;;;;;5010717;28;20125;-86
2022/03/12 03:16:56;;;;;;;10.55;6.32;;;;;;;;;;5009817;28;20049;-87
2022/03/12 03:19:25;;;;;;;14.15;6.50;;;;;;;;;;5008965;28;20093;-86
2022/03/12 03:21:55;;;;;;;10.77;6.90;;;;;;;;;;5027483;28;20045;-87
2022/03/12 03:24:22;;;;;;;11.63;6.82;;;;;;;;;;5010048;28;20499;-86
2022/03/12 03:26:48;;;;;;;13.45;7.10;;;;;;;;;;4991674;28;20060;-86
2022/03/12 03:29:15;;;;;;;11.18;6.90;;;;;;;;;;5010832;28;20462;-86
2022/03/12 03:31:41;;;;;;;11.52;6.50;;;;;;;;;;5011091;28;20108;-85
2022/03/12 03:34:08;;;;;;;12.52;6.40;;;;;;;;;;5008619;28;20050;-85
2022/03/12 03:36:34;;;;;;;11.18;6.90;;;;;;;;;;5010626;28;20419;-84
2022/03/12 03:39:00;;;;;;;11.75;6.43;;;;;;;;;;5008815;28;20064;-85
2022/03/12 03:41:26;;;;;;;12.20;7.03;;;;;;;;;;5011269;28;20539;-85
2022/03/12 03:43:53;;;;;;;11.85;6.88;;;;;;;;;;4994460;28;20038;-85
2022/03/12 03:46:21;;;;;;;14.85;7.22;;;;;;;;;;5009407;28;20069;-84
2022/03/12 03:48:49;;;;;;;10.25;6.22;;;;;;;;;;5010857;28;20087;-86
2022/03/12 03:51:15;;;;;;;11.45;6.68;;;;;;;;;;5010339;28;20042;-86
2022/03/12 03:53:42;;;;;;;11.52;6.85;;;;;;;;;;5010357;28;20038;-86
2022/03/12 03:56:08;;;;;;;11.18;6.57;;;;;;;;;;5011171;28;20095;-87
2022/03/12 03:58:35;;;;;;;13.50;7.03;;;;;;;;;;5003821;28;20046;-87
2022/03/12 04:01:03;;;;;;;12.23;7.20;;;;;;;;;;4991672;28;20121;-87
2022/03/12 04:03:33;;;;;;;9.40;6.45;;;;;;;;;;4995247;28;20083;-87
2022/03/12 04:06:03;;;;;;;12.63;6.82;;;;;;;;;;4988690;28;20136;-84
2022/03/12 04:08:29;;;;;;;15.23;7.35;;;;;;;;;;5008913;28;20046;-85
2022/03/12 04:10:55;;;;;;;11.80;7.25;;;;;;;;;;4996507;28;20073;-84
2022/03/12 04:13:22;;;;;;;15.30;6.90;;;;;;;;;;4987126;28;20365;-84
2022/03/12 04:15:49;;;;;;;12.63;7.07;;;;;;;;;;5008230;28;20042;-84
2022/03/12 04:18:17;;;;;;;12.60;7.28;;;;;;;;;;5007699;28;20382;-84
2022/03/12 04:20:47;;;;;;;12.70;7.30;;;;;;;;;;5009523;28;20073;-84
2022/03/12 04:23:18;;;;;;;10.63;7.00;;;;;;;;;;4993446;28;20096;-86
2022/03/12 04:25:44;;;;;;;11.77;7.07;;;;;;;;;;4992894;28;20120;-85
2022/03/12 04:28:10;;;;;;;12.18;7.65;;;;;;;;;;5007213;28;20046;-85
2022/03/12 04:30:38;;;;;;;14.23;7.32;;;;;;;;;;4977801;28;20081;-84
2022/03/12 04:33:04;;;;;;;16.08;7.15;;;;;;;;;;5009693;28;20053;-85
2022/03/12 04:35:32;;;;;;;12.80;7.47;;;;;;;;;;5008785;28;20078;-84
2022/03/12 04:37:59;;;;;;;16.35;7.50;;;;;;;;;;5010405;28;20073;-85
2022/03/12 04:40:26;;;;;;;15.43;7.32;;;;;;;;;;4993628;28;20129;-85
2022/03/12 04:42:53;;;;;;;13.27;7.70;;;;;;;;;;4987481;28;20116;-85
2022/03/12 04:45:22;;;;;;;10.88;7.60;;;;;;;;;;5007719;28;20073;-85
2022/03/12 04:47:50;;;;;;;13.02;7.75;;;;;;;;;;4988410;28;20042;-84
2022/03/12 04:50:16;;;;;;;11.65;7.15;;;;;;;;;;4989663;28;20069;-84
2022/03/12 04:52:47;;;;;;;13.38;7.55;;;;;;;;;;5007934;28;20165;-84
2022/03/12 04:55:19;;;;;;;11.43;7.53;;;;;;;;;;5006629;28;20069;-85
2022/03/12 04:57:46;;;;;;;14.55;7.70;;;;;;;;;;5010782;28;20392;-85
2022/03/12 05:00:20;;;;;;;14.70;8.10;;;;;;;;;;4977785;28;20042;-85
2022/03/12 05:02:47;;;;;;;14.73;7.70;;;;;;;;;;5002364;28;20384;-85
2022/03/12 05:05:14;;;;;;;13.98;8.40;;;;;;;;;;4988256;28;20172;-85
2022/03/12 05:07:43;;;;;;;14.25;7.97;;;;;;;;;;4984102;28;20037;-85
2022/03/12 05:10:10;;;;;;;14.43;7.88;;;;;;;;;;5005926;28;20048;-85
2022/03/12 05:12:37;;;;;;;11.50;7.30;;;;;;;;;;5002494;28;20034;-85
2022/03/12 05:15:04;;;;;;;14.73;8.27;;;;;;;;;;4988351;28;20396;-85
2022/03/12 05:17:38;;;;;;;11.88;7.43;;;;;;;;;;4985672;28;20039;-85
2022/03/12 05:20:04;;;;;;;13.25;8.38;;;;;;;;;;4994127;28;20049;-85
2022/03/12 05:22:30;;;;;;;14.32;8.07;;;;;;;;;;5011005;28;20033;-85
2022/03/12 05:24:56;;;;;;;14.32;7.85;;;;;;;;;;5007289;28;20030;-84
2022/03/12 05:27:22;;;;;;;12.77;7.90;;;;;;;;;;5010433;28;20138;-85
2022/03/12 05:29:48;;;;;;;13.30;7.55;;;;;;;;;;4985682;28;20045;-87
2022/03/12 05:32:15;;;;;;;14.00;7.95;;;;;;;;;;5009780;28;20097;-87
2022/03/12 05:34:42;;;;;;;13.60;8.20;;;;;;;;;;4993602;28;20038;-87
2022/03/12 05:37:09;;;;;;;15.73;8.25;;;;;;;;;;5016027;28;20058;-87
2022/03/12 05:39:36;;;;;;;17.52;7.88;;;;;;;;;;5009378;28;20068;-87
2022/03/12 05:42:05;;;;;;;14.52;8.07;;;;;;;;;;5014499;28;20040;-88
2022/03/12 05:44:36;;;;;;;13.65;8.27;;;;;;;;;;5014451;28;20034;-86
2022/03/12 05:47:09;;;;;;;16.17;8.35;;;;;;;;;;5024523;23;20105;-84
2022/03/12 05:49:35;;;;;;;12.40;7.50;;;;;;;;;;4982030;28;20035;-84
2022/03/12 05:52:01;;;;;;;13.68;7.63;;;;;;;;;;4967541;28;20128;-84
2022/03/12 05:54:28;;;;;;;13.50;7.95;;;;;;;;;;4969116;28;20047;-84
2022/03/12 05:56:56;;;;;;;15.90;8.30;;;;;;;;;;4966789;28;20050;-84
2022/03/12 05:59:22;;;;;;;11.57;7.38;;;;;;;;;;4968248;28;20043;-84
2022/03/12 06:01:50;;;;;;;12.98;7.97;;;;;;;;;;4967278;28;20031;-84
2022/03/12 06:04:25;;;;;;;13.77;8.38;;;;;;;;;;4986057;28;20185;-84
2022/03/12 06:06:52;;;;;;;13.57;8.18;;;;;;;;;;4962560;28;20034;-85
2022/03/12 06:09:18;;;;;;;13.95;8.23;;;;;;;;;;4997882;28;20401;-84
2022/03/12 06:11:44;;;;;;;14.70;7.55;;;;;;;;;;4985047;28;20515;-84
2022/03/12 06:14:14;;;;;;;13.25;7.95;;;;;;;;;;4980902;28;20042;-84
2022/03/12 06:16:40;;;;;;;12.88;8.23;;;;;;;;;;4968047;28;20048;-84
2022/03/12 06:19:07;;;;;;;17.58;7.53;;;;;;;;;;4968127;28;20053;-87
2022/03/12 06:21:33;;;;;;;18.63;8.93;;;;;;;;;;4981907;28;20043;-87
2022/03/12 06:24:00;;;;;;;12.50;7.53;;;;;;;;;;4980538;28;20122;-87
2022/03/12 06:26:27;;;;;;;13.35;8.15;;;;;;;;;;4965794;28;20035;-87
2022/03/12 06:28:54;;;;;;;13.05;7.90;;;;;;;;;;4969882;28;20038;-87
2022/03/12 06:31:20;;;;;;;17.60;7.90;;;;;;;;;;4966580;28;20109;-87
2022/03/12 06:33:46;;;;;;;13.05;7.60;;;;;;;;;;4981244;28;20397;-87
2022/03/12 06:36:13;;;;;;;16.00;8.20;;;;;;;;;;4982131;28;20054;-84
2022/03/12 06:38:39;;;;;;;14.30;8.13;;;;;;;;;;4966684;28;20080;-83
2022/03/12 06:41:05;;;;;;;14.85;8.95;;;;;;;;;;4980579;28;20428;-84
2022/03/12 06:43:33;;;;;;;12.68;7.95;;;;;;;;;;4974176;28;20493;-83
2022/03/12 06:45:59;;;;;;;18.83;10.82;;;;;;;;;;4995866;28;20038;-83
2022/03/12 06:48:26;;;;;;;15.10;9.70;;;;;;;;;;4978982;28;20133;-83
2022/03/12 06:50:52;;;;;;;14.40;8.85;;;;;;;;;;4967510;28;20046;-83
2022/03/12 06:53:18;;;;;;;13.55;8.70;;;;;;;;;;4981038;28;20105;-86
2022/03/12 06:55:47;;;;;;;13.65;8.10;;;;;;;;;;4979472;28;20062;-86
2022/03/12 06:58:13;;;;;;;14.85;8.32;;;;;;;;;;4963847;28;20039;-86
2022/03/12 07:00:39;;;;;;;13.65;8.52;;;;;;;;;;4979030;28;20046;-86
2022/03/12 07:03:06;;;;;;;18.30;8.38;;;;;;;;;;4983609;28;20038;-85
2022/03/12 07:05:32;;;;;;;14.05;8.30;;;;;;;;;;4969779;28;20041;-85
2022/03/12 07:07:58;;;;;;;14.63;8.63;;;;;;;;;;4980839;28;20047;-83
2022/03/12 07:10:24;;;;;;;12.73;8.35;;;;;;;;;;4965305;28;20034;-83
2022/03/12 07:12:50;;;;;;;15.13;8.55;;;6.30;99.90;;;;;;4980952;28;20342;-83
2022/03/12 07:15:18;;;;;;;13.32;8.30;;;7.60;98.10;;;;;;4972145;28;20397;-84
2022/03/12 07:17:44;;;;;;;12.30;8.15;;;7.70;98.20;;;;;;4980077;28;20034;-84
2022/03/12 07:20:11;;;;;;;14.48;8.30;;;9.10;95.00;;;;;;4948219;28;20378;-84
2022/03/12 07:22:38;;;;;;;14.23;8.80;;;8.90;93.40;;;;;;4982890;28;20035;-84
2022/03/12 07:25:07;;;;;;;14.20;8.68;;;9.10;92.40;;;;;;4979366;28;20038;-87
2022/03/12 07:27:33;;;;;;;12.98;7.68;;;9.30;91.00;;;;;;4982739;28;20114;-87
2022/03/12 07:30:00;;;;;;;15.15;8.85;;;9.60;90.70;;;;;;4961521;28;20126;-87
2022/03/12 07:32:28;;;;;;;13.85;8.40;;;9.90;89.20;;;;;;4946217;28;20057;-88
2022/03/12 07:34:54;;;;;;;14.27;8.38;;;10.20;87.10;;;;;;4970773;28;20039;-88
2022/03/12 07:37:21;;;;;;;13.75;8.52;;;10.50;87.10;;;;;;4956203;28;20350;-87
2022/03/12 07:39:47;;;;;;;13.35;8.43;;;10.90;82.60;;;;;;4968946;28;20039;-87
2022/03/12 07:42:13;;;;;;;11.85;8.25;;;11.30;82.70;;;;;;4967783;28;20381;-86
2022/03/12 07:44:39;;;;;;;11.55;7.93;;;11.20;81.30;;;;;;4970156;28;20053;-86
2022/03/12 07:47:07;;;;;;;12.55;8.63;;;11.10;78.80;;;;;;4988367;28;20057;-86
2022/03/12 07:49:34;;;;;;;13.20;8.25;;;10.90;80.50;;;;;;4980884;28;20047;-85
2022/03/12 07:52:00;;;;;;;12.93;8.23;;;11.20;80.90;;;;;;4959260;28;20042;-85
2022/03/12 07:54:26;;;;;;;12.10;8.68;;;11.50;81.20;;;;;;4982341;28;20408;-85
2022/03/12 07:56:52;;;;;;;14.82;7.93;;;11.80;78.40;;;;;;4962150;28;20042;-85
2022/03/12 07:59:18;;;;;;;14.40;8.07;;;12.10;76.40;;;;;;4970291;28;20070;-88
2022/03/12 08:01:44;;;;;;;14.18;8.10;;;12.50;76.80;;;;;;4966726;28;20492;-88
2022/03/12 08:04:10;;;;;;;14.43;8.13;;;13.00;75.30;;;;;;5000152;28;20045;-88
2022/03/12 08:06:36;;;;;;;11.15;8.20;;;12.90;73.60;;;;;;4945694;28;20117;-88
2022/03/12 08:09:03;;;;;;;11.50;8.18;;;13.10;74.00;;;;;;4973229;28;20070;-87
2022/03/12 08:11:29;;;;;;;12.25;8.93;;;13.20;74.80;;;;;;4961095;28;20050;-87
2022/03/12 08:14:02;;;;;;;12.20;8.57;;;13.10;74.00;;;;;;4971485;28;20401;-86
2022/03/12 08:16:33;;;;;;;12.95;8.90;;;13.10;75.40;;;;;;4987979;28;20049;-86
2022/03/12 08:19:01;;;;;;;21.65;8.73;;;13.30;74.30;;;;;;4975715;28;20192;-85
2022/03/12 08:21:27;;;;;;;14.18;8.95;;;13.90;72.60;;;;;;4985537;28;20043;-85
2022/03/12 08:23:53;;;;;;;14.23;8.93;;;;;;;;;;4953604;28;20128;-85
2022/03/12 08:26:21;;;;;;;11.60;8.70;;;14.50;67.80;;;;;;4985484;28;20050;-85
2022/03/12 08:28:47;;;;;;;13.18;9.35;;;14.60;68.70;;;;;;4973213;28;20105;-85
2022/03/12 08:31:14;;;;;;;12.30;8.52;;;14.00;69.40;;;;;;4953887;28;20046;-85
2022/03/12 08:33:40;;;;;;;12.23;8.68;;;14.00;71.20;;;;;;4971812;28;20093;-85
2022/03/12 08:36:06;;;;;;;12.60;8.95;;;13.80;71.70;;;;;;4969172;28;20042;-85
2022/03/12 08:38:34;;;;;;;15.23;9.38;;;13.60;71.70;;;;;;4956415;28;20035;-86
2022/03/12 08:41:01;;;;;;;13.40;9.23;;;13.60;72.40;;;;;;4954316;28;20042;-84
2022/03/12 08:43:27;;;;;;;11.20;8.15;;;13.20;73.00;;;;;;4972125;28;20041;-84
2022/03/12 08:45:52;;;;;;;13.80;8.82;;;13.50;74.60;;;;;;4955905;28;20122;-85
2022/03/12 08:48:18;;;;;;;13.25;9.18;;;14.00;74.30;;;;;;4939523;28;20047;-85
2022/03/12 08:50:45;;;;;;;14.35;8.95;;;14.30;74.20;;;;;;4934362;29;20474;-83
2022/03/12 08:53:12;;;;;;;15.27;8.55;;;14.70;74.30;;;;;;4936774;29;20090;-86
2022/03/12 08:55:39;;;;;;;12.25;8.15;;;14.80;73.20;;;;;;4938107;29;20390;-90
2022/03/12 08:58:05;;;;;;;13.88;8.95;;;15.10;73.20;;;;;;4919437;29;20113;-84
2022/03/12 09:00:31;;;;;;;11.68;8.70;;;15.40;73.20;;;;;;4935756;29;20040;-85
2022/03/12 09:02:58;;;;;;;15.35;9.00;;;15.80;72.40;;;;;;4936533;29;20042;-84
2022/03/12 09:05:24;;;;;;;11.60;8.30;;;15.80;71.20;;;;;;4938637;29;20039;-85
2022/03/12 09:07:51;;;;;;;12.40;8.60;;;15.90;71.50;;;;;;4951614;28;20043;-85
2022/03/12 09:10:19;;;;;;;15.07;8.95;;;15.80;72.10;;;;;;4938768;29;20406;-85
2022/03/12 09:12:45;;;;;;;13.85;8.85;;;15.40;72.30;;;;;;4935859;29;20035;-86
2022/03/12 09:15:12;;;;;;;13.25;9.07;;;15.20;73.20;;;;;;4941028;28;20425;-86
2022/03/12 09:17:38;;;;;;;12.85;8.38;;;14.90;74.90;;;;;;4941937;29;20038;-86
2022/03/12 09:20:05;;;;;;;12.70;8.50;;;15.00;75.70;;;;;;4940484;29;21603;-85
2022/03/12 09:22:30;;;;;;;14.98;8.93;;;14.90;76.50;;;;;;4939605;29;20035;-85
2022/03/12 09:24:56;;;;;;;14.88;8.65;;;15.50;76.90;;;;;;4939282;29;20397;-85
2022/03/12 09:27:22;;;;;;;12.85;8.65;;;15.50;75.60;;;;;;4924339;29;20043;-85
2022/03/12 09:29:48;;;;;;;11.23;8.55;;;15.50;77.00;;;;;;4939525;28;20053;-84
2022/03/12 09:32:14;;;;;;;12.30;8.60;;;15.40;76.70;;;;;;4955229;28;20043;-85
2022/03/12 09:34:40;;;;;;;12.02;8.20;;;15.40;77.10;;;;;;4939076;29;20035;-86
2022/03/12 09:37:07;;;;;;;10.93;7.28;;;14.90;79.30;;;;;;4936772;29;20102;-85
2022/03/12 09:39:34;;;;;;;12.35;8.07;;;15.20;80.00;;;;;;4938274;28;20043;-87
2022/03/12 09:42:00;;;;;;;10.60;8.05;;;14.80;80.90;;;;;;4936490;29;20043;-84
2022/03/12 09:44:26;;;;;;;11.27;7.70;;;14.70;83.10;;;;;;4936094;28;20043;-85
2022/03/12 09:46:52;;;;;;;13.10;8.15;;;14.80;84.10;;;;;;4936321;29;20039;-84
2022/03/12 09:49:18;;;;;;;11.20;7.78;;;14.90;85.10;;;;;;4939935;28;20504;-85
2022/03/12 09:51:44;;;;;;;11.25;8.00;;;15.70;83.80;;;;;;4942075;28;20035;-85
2022/03/12 09:54:11;;;;;;;9.45;6.95;;;15.80;82.10;;;;;;4940567;28;20462;-85
2022/03/12 09:56:37;;;;;;;11.95;7.70;;;16.10;82.10;;;;;;4945544;28;20042;-85
2022/03/12 09:59:05;;;;;;;9.15;7.20;;;15.90;82.20;;;;;;4924184;28;20714;-85
2022/03/12 10:01:31;;;;;;;9.88;6.80;;;16.00;83.20;;;;;;4942257;28;20035;-85
2022/03/12 10:03:57;;;;;;;10.55;7.53;;;16.10;82.60;;;;;;4945794;28;20047;-85
2022/03/12 10:06:22;;;;;;;9.85;7.00;;;16.30;83.20;;;;;;4945799;28;20038;-85
2022/03/12 10:08:48;;;;;;;10.20;6.95;;;16.90;81.00;;;;;;4928345;28;20478;-85
2022/03/12 10:11:14;;;;;;;15.25;7.15;;;16.60;80.60;;;;;;4950022;28;20113;-86
2022/03/12 10:13:40;;;;;;;10.63;7.57;;;17.00;80.60;;;;;;4943422;28;20045;-86
2022/03/12 10:16:07;;;;;;;12.40;7.32;;;17.10;79.90;;;;;;4942244;28;20059;-86
2022/03/12 10:18:34;;;;;;;8.60;6.30;;;17.20;81.20;;;;;;4942152;29;20073;-86
2022/03/12 10:21:00;;;;;;;11.00;7.35;;;17.10;78.30;;;;;;4939866;29;20054;-86
2022/03/12 10:23:26;;;;;;;13.02;7.05;;;17.20;79.20;;;;;;4940244;29;20062;-86
2022/03/12 10:25:52;;;;;;;11.43;6.97;;;17.50;79.50;;;;;;4941328;28;20042;-86
2022/03/12 10:28:18;;;;;;;13.55;9.23;;;17.80;78.40;;;;;;4930079;29;20083;-87
2022/03/12 10:30:43;;;;;;;9.30;7.20;;;17.20;80.00;;;;;;4945085;28;20047;-86
2022/03/12 10:33:13;;;;;;;9.02;6.63;;;17.30;79.10;;;;;;4941095;29;20047;-86
2022/03/12 10:35:40;;;;;;;10.75;7.03;;;17.60;79.60;;;;;;4941703;28;20039;-87
2022/03/12 10:38:11;;;;;;;9.65;6.57;;;18.10;79.10;;;;;;4954668;29;20467;-87
2022/03/12 10:40:37;;;;;;;11.88;6.55;;;18.30;77.60;;;;;;4938512;29;20043;-86
2022/03/12 10:43:12;;;;;;;11.57;6.78;;;18.60;78.10;;;;;;4938649;29;20040;-86
2022/03/12 10:45:48;;;;;;;9.18;6.57;;;18.80;76.60;;;;;;4937426;29;20036;-86
2022/03/12 10:48:19;;;;;;;9.18;6.05;;;18.30;75.10;;;;;;4962702;28;20600;-86
2022/03/12 10:50:47;;;;;;;9.18;6.50;;;18.30;76.00;;;;;;4958852;28;20081;-86
2022/03/12 10:53:15;;;;;;;10.48;6.40;;;18.10;76.90;;;;;;4939968;29;20035;-86
2022/03/12 10:55:46;;;;;;;10.20;6.50;;;;;;;;;;4936909;28;20473;-87
2022/03/12 10:58:16;;;;;;;9.73;6.20;;;;;;;;;;4963901;28;20051;-87
2022/03/12 11:00:42;;;;;;;8.90;6.38;;;;;;;;;;4957398;28;20047;-88
2022/03/12 11:03:14;;;;;;;9.88;6.50;;;;;;;;;;4957369;28;20039;-87
2022/03/12 11:05:43;;;;;;;10.18;7.20;;;;;;;;;;4955482;29;20540;-87
2022/03/12 11:08:15;;;;;;;10.65;7.68;;;;;;;;;;4956937;28;20108;-86
2022/03/12 11:11:11;;;;;;;9.73;6.53;;;;;;;;;;4956076;28;20118;-86
2022/03/12 11:13:43;;;;;;;8.73;6.43;;;;;;;;;;4957346;28;20063;-85
2022/03/12 11:16:12;;;;;;;8.07;6.60;;;;;;;;;;4937505;29;20043;-86
2022/03/12 11:18:39;;;;;;;10.10;6.60;;;;;;;;;;4949987;29;20035;-86
2022/03/12 11:21:05;;;;;;;11.25;6.55;;;;;;;;;;4955736;28;20087;-85
2022/03/12 11:23:32;;;;;;;10.32;6.55;;;;;;;;;;4953935;29;20027;-85
2022/03/12 11:26:05;;;;;;;8.48;6.47;;;;;;;;;;4960566;28;20050;-84
2022/03/12 11:28:32;;;;;;;9.50;5.82;;;;;;;;;;4955572;28;20498;-84
2022/03/12 11:30:58;;;;;;;9.75;6.88;;;;;;;;;;4972178;28;20039;-85
2022/03/12 11:33:27;;;;;;;9.18;6.50;;;;;;;;;;4941184;28;20129;-84
2022/03/12 11:36:01;;;;;;;8.48;6.40;;;;;;;;;;4954867;28;20538;-86
2022/03/12 11:38:27;;;;;;;10.05;6.75;;;;;;;;;;4946944;28;20054;-86
2022/03/12 11:41:03;;;;;;;11.18;6.75;;;;;;;;;;4952979;28;20038;-89
2022/03/12 11:43:33;;;;;;;8.13;6.47;;;;;;;;;;4948886;29;20035;-87
2022/03/12 11:45:59;;;;;;;12.20;6.20;;;;;;;;;;4938016;29;20039;-88
2022/03/12 11:48:29;;;;;;;11.48;7.25;;;;;;;;;;4956844;28;20065;-89
2022/03/12 11:50:55;;;;;;;10.57;5.95;;;;;;;;;;4955615;28;20397;-88
2022/03/12 11:53:22;;;;;;;10.32;6.28;;;;;;;;;;4956777;28;20049;-88
2022/03/12 11:55:50;;;;;;;10.27;5.97;;;;;;;;;;4956439;28;20512;-87
2022/03/12 11:58:17;;;;;;;8.77;6.32;;;;;;;;;;4940149;28;20038;-87
2022/03/12 12:00:47;;;;;;;11.00;6.00;;;;;;;;;;4969659;28;20057;-88
2022/03/12 12:03:17;;;;;;;9.02;6.15;;;;;;;;;;4962158;28;20031;-87
2022/03/12 12:05:45;;;;;;;8.98;6.13;;;;;;;;;;4959651;28;20062;-87
2022/03/12 12:08:14;;;;;;;9.32;5.90;;;;;;;;;;4959402;28;20038;-89
2022/03/12 12:10:42;;;;;;;10.10;6.60;;;;;;;;;;4955846;28;20048;-89
2022/03/12 12:13:08;;;;;;;9.02;5.75;;;;;;;;;;4957083;28;20460;-90
2022/03/12 12:15:36;;;;;;;8.43;5.97;;;;;;;;;;4938862;28;20576;-89
2022/03/12 12:18:06;;;;;;;11.07;6.85;;;;;;;;;;4968213;28;20135;-89
2022/03/12 12:20:32;;;;;;;9.95;6.63;;;;;;;;;;4959516;28;20042;-90
2022/03/12 12:23:00;;;;;;;11.27;6.50;;;;;;;;;;4956538;28;20034;-89
2022/03/12 12:25:30;;;;;;;12.60;6.55;;;;;;;;;;4956618;28;20093;-87
2022/03/12 12:27:56;;;;;;;11.43;7.80;;;;;;;;;;4954601;28;20038;-87
2022/03/12 12:30:22;;;;;;;9.65;7.15;;;;;;;;;;4956103;28;20125;-87
2022/03/12 12:32:49;;;;;;;10.35;6.60;;;;;;;;;;4940405;28;20086;-87
2022/03/12 12:35:18;;;;;;;11.55;7.28;;;;;;;;;;4954738;28;20515;-87
2022/03/12 12:37:44;;;;;;;10.18;6.50;;;;;;;;;;4955742;28;20035;-87
2022/03/12 12:40:20;;;;;;;10.70;6.20;;;;;;;;;;4956060;28;20093;-87
2022/03/12 12:42:48;;;;;;;12.15;7.18;;;;;;;;;;4956569;28;20481;-90
2022/03/12 12:45:16;;;;;;;14.50;7.50;;;;;;;;;;4939466;28;20034;-89
2022/03/12 12:47:42;;;;;;;11.50;6.45;;;;;;;;;;4953872;28;20060;-90
2022/03/12 12:50:19;;;;;;;13.85;6.30;;;;;;;;;;4955624;28;20453;-89
2022/03/12 12:53:04;;;;;;;9.23;6.40;;;;;;;;;;4938410;28;20452;-90
2022/03/12 12:55:33;;;;;;;11.73;6.35;;;;;;;;;;4955504;28;20042;-89
2022/03/12 12:57:59;;;;;;;10.77;6.45;;;;;;;;;;4955870;28;20497;-88
2022/03/12 13:00:30;;;;;;;10.43;6.30;;;;;;;;;;4954845;28;20059;-87
2022/03/12 13:02:58;;;;;;;9.98;6.28;;;;;;;;;;4954599;28;20109;-87
2022/03/12 13:05:42;;;;;;;12.27;5.90;;;;;;;;;;4938824;28;20039;-87
2022/03/12 13:08:08;;;;;;;9.50;6.13;;;;;;;;;;4955610;28;20125;-87
2022/03/12 13:10:35;;;;;;;11.18;6.70;;;;;;;;;;4955416;28;20044;-87
2022/03/12 13:13:21;;;;;;;9.80;5.93;;;;;;;;;;4956318;28;20062;-87
2022/03/12 13:15:48;;;;;;;9.55;6.60;;;;;;;;;;4955154;28;20485;-87
2022/03/12 13:18:18;;;;;;;11.32;6.38;;;;;;;;;;4955261;28;20039;-88
2022/03/12 13:20:47;;;;;;;8.75;5.78;;;;;;;;;;4952722;28;20039;-88
2022/03/12 13:23:19;;;;;;;9.50;6.35;;;;;;;;;;4939755;28;20054;-88
2022/03/12 13:25:57;;;;;;;8.30;5.90;;;;;;;;;;4955418;28;20359;-88
2022/03/12 13:28:36;;;;;;;12.05;6.63;;;;;;;;;;4955058;28;20111;-88
2022/03/12 13:31:12;;;;;;;8.68;6.07;;;;;;;;;;4940156;28;20343;-86
2022/03/12 13:33:38;;;;;;;12.05;6.68;;;;;;;;;;4955466;28;20058;-85
2022/03/12 13:36:04;;;;;;;10.93;6.07;;;;;;;;;;4955348;28;20488;-85
2022/03/12 13:38:30;;;;;;;13.05;5.90;;;;;;;;;;4953816;28;20042;-85
2022/03/12 13:40:56;;;;;;;9.55;6.40;;;;;;;;;;4955550;28;20479;-85
2022/03/12 13:43:23;;;;;;;8.57;5.80;;;;;;;;;;4955423;28;20081;-85
2022/03/12 13:46:00;;;;;;;9.10;5.90;;;;;;;;;;4939012;28;20485;-85
2022/03/12 13:48:28;;;;;;;9.25;6.25;;;;;;;;;;4937289;28;20606;-87
2022/03/12 13:50:57;;;;;;;10.90;6.15;;;;;;;;;;4954857;28;20043;-87
2022/03/12 13:53:30;;;;;;;9.05;6.18;;;;;;;;;;4953416;28;20046;-87
2022/03/12 13:56:04;;;;;;;9.10;5.70;;;;;;;;;;4952146;28;20046;-87
2022/03/12 13:58:31;;;;;;;10.40;5.20;;;;;;;;;;4955357;28;20070;-87
2022/03/12 14:01:00;;;;;;;9.68;5.80;;;;;;;;;;4942820;28;20050;-87
2022/03/12 14:03:29;;;;;;;8.95;5.32;;;;;;;;;;4956171;28;20039;-87